Time;durP1;ratioP1;P1;durP2;ratioP2;P2;SDS_P1;SDS_P2;PMS_P1;PMS_P2;Temp;Humidity;BMP_temperature;BMP_pressure;BME280_temperature;BME280_humidity;BME280_pressure;Samples;Min_cycle;Max_cycle;Signal;HPM_P1;HPM_P2
2023/09/06 00:00:53;;;;;;;2.67;2.33;;;19.70;99.90;;;;;;4862175;29;20256;-82
2023/09/06 00:03:18;;;;;;;2.87;2.30;;;19.60;99.90;;;;;;4862362;29;20263;-81
2023/09/06 00:05:44;;;;;;;7.37;2.63;;;19.50;99.90;;;;;;4862218;29;20243;-81
2023/09/06 00:08:14;;;;;;;4.67;2.43;;;19.50;99.90;;;;;;4862476;29;20188;-82
2023/09/06 00:10:43;;;;;;;4.10;2.10;;;19.40;99.90;;;;;;4862013;29;20432;-81
2023/09/06 00:13:11;;;;;;;3.83;2.20;;;19.40;99.90;;;;;;4862198;29;20425;-81
2023/09/06 00:15:37;;;;;;;3.13;2.30;;;19.30;99.90;;;;;;4862182;29;20425;-81
2023/09/06 00:18:08;;;;;;;5.57;1.93;;;19.20;99.90;;;;;;4862686;29;20481;-81
2023/09/06 00:20:35;;;;;;;4.00;2.37;;;19.10;99.90;;;;;;4862226;29;20181;-81
2023/09/06 00:23:06;;;;;;;3.33;2.70;;;19.10;99.90;;;;;;4862317;29;20409;-81
2023/09/06 00:25:32;;;;;;;5.97;2.80;;;19.00;99.90;;;;;;4861988;29;20432;-81
2023/09/06 00:28:00;;;;;;;6.10;2.90;;;19.00;99.90;;;;;;4861977;29;20399;-82
2023/09/06 00:30:26;;;;;;;3.77;3.20;;;18.90;99.90;;;;;;4862352;29;20433;-81
2023/09/06 00:32:54;;;;;;;4.00;2.57;;;18.90;99.90;;;;;;4861508;29;20444;-81
2023/09/06 00:35:26;;;;;;;4.60;2.80;;;18.80;99.90;;;;;;4861930;29;20571;-81
2023/09/06 00:37:53;;;;;;;3.47;2.80;;;18.80;99.90;;;;;;4862158;29;20419;-81
2023/09/06 00:40:21;;;;;;;5.30;2.67;;;18.80;99.90;;;;;;4862075;29;20421;-81
2023/09/06 00:43:00;;;;;;;8.13;2.87;;;18.70;99.90;;;;;;4861630;29;20472;-81
2023/09/06 00:45:33;;;;;;;6.77;2.80;;;18.60;99.90;;;;;;4862506;29;20387;-81
2023/09/06 00:48:01;;;;;;;6.00;2.73;;;18.60;99.90;;;;;;4861633;29;20531;-81
2023/09/06 00:50:26;;;;;;;4.27;2.93;;;18.50;99.90;;;;;;4861761;29;20433;-82
2023/09/06 00:52:52;;;;;;;3.07;2.77;;;18.50;99.90;;;;;;4861673;29;20404;-81
2023/09/06 00:55:20;;;;;;;4.70;3.87;;;18.50;99.90;;;;;;4861584;29;20219;-81
2023/09/06 00:57:46;;;;;;;6.70;3.40;;;18.50;99.90;;;;;;4861951;29;20485;-81
2023/09/06 01:00:17;;;;;;;7.33;2.80;;;18.40;99.90;;;;;;4861750;29;20400;-81
2023/09/06 01:02:47;;;;;;;5.00;2.70;;;18.40;99.90;;;;;;4861719;29;20433;-81
2023/09/06 01:05:17;;;;;;;3.73;2.87;;;18.30;99.90;;;;;;4860065;29;21020;-81
2023/09/06 01:07:51;;;;;;;4.37;2.90;;;18.20;99.90;;;;;;4861496;29;20745;-81
2023/09/06 01:10:16;;;;;;;5.63;3.17;;;18.10;99.90;;;;;;4861979;29;20459;-81
2023/09/06 01:12:42;;;;;;;4.47;2.63;;;18.00;99.90;;;;;;4861812;29;20835;-82
2023/09/06 01:15:10;;;;;;;4.40;2.77;;;18.00;99.90;;;;;;4861523;29;20276;-81
2023/09/06 01:17:37;;;;;;;4.27;2.80;;;17.90;99.90;;;;;;4861852;29;20215;-81
2023/09/06 01:20:29;;;;;;;5.00;2.60;;;17.70;99.90;;;;;;4861753;29;20392;-81
2023/09/06 01:23:17;;;;;;;6.30;2.63;;;17.70;99.90;;;;;;4861375;29;20449;-81
2023/09/06 01:25:44;;;;;;;6.70;3.40;;;17.60;99.90;;;;;;4861481;29;20391;-81
2023/09/06 01:28:09;;;;;;;4.77;2.53;;;17.50;99.90;;;;;;4862103;29;20396;-81
2023/09/06 01:30:36;;;;;;;4.00;3.20;;;17.40;99.90;;;;;;4861485;29;20408;-81
2023/09/06 01:33:03;;;;;;;3.30;2.70;;;17.30;99.90;;;;;;4861585;29;20270;-81
2023/09/06 01:35:28;;;;;;;5.03;3.17;;;17.30;99.90;;;;;;4861729;29;20433;-81
2023/09/06 01:37:54;;;;;;;4.93;3.40;;;17.20;99.90;;;;;;4861968;29;20722;-82
2023/09/06 01:40:20;;;;;;;3.33;3.03;;;17.10;99.90;;;;;;4862354;29;20185;-81
2023/09/06 01:42:46;;;;;;;5.70;3.63;;;17.10;99.90;;;;;;4861708;29;20181;-81
2023/09/06 01:45:17;;;;;;;6.40;4.20;;;17.10;99.90;;;;;;4861671;29;20441;-81
2023/09/06 01:47:49;;;;;;;4.43;2.70;;;17.00;99.90;;;;;;4861718;29;20778;-81
2023/09/06 01:50:19;;;;;;;5.03;2.83;;;16.90;99.90;;;;;;4861987;29;20425;-81
2023/09/06 01:52:46;;;;;;;3.27;2.77;;;16.80;99.90;;;;;;4861500;29;20507;-81
2023/09/06 01:55:12;;;;;;;3.40;2.97;;;16.80;99.90;;;;;;4861290;29;20472;-81
2023/09/06 01:57:37;;;;;;;6.43;3.70;;;16.70;99.90;;;;;;4861274;29;20481;-81
2023/09/06 02:00:20;;;;;;;5.20;3.43;;;16.70;99.90;;;;;;4864757;29;20584;-81
2023/09/06 02:02:46;;;;;;;5.10;3.90;;;16.60;99.90;;;;;;4864853;29;20295;-81
2023/09/06 02:05:12;;;;;;;8.60;3.83;;;16.60;99.90;;;;;;4864640;29;20808;-81
2023/09/06 02:07:37;;;;;;;5.10;3.67;;;16.50;99.90;;;;;;4864432;29;20404;-81
2023/09/06 02:10:07;;;;;;;5.67;3.40;;;16.50;99.90;;;;;;4865071;29;20483;-81
2023/09/06 02:12:33;;;;;;;5.60;3.50;;;16.50;99.90;;;;;;4865436;29;20187;-81
2023/09/06 02:14:59;;;;;;;5.10;3.97;;;16.50;99.90;;;;;;4865059;29;20482;-81
2023/09/06 02:17:25;;;;;;;4.73;3.70;;;16.40;99.90;;;;;;4864785;29;20772;-81
2023/09/06 02:19:50;;;;;;;5.43;3.47;;;16.40;99.90;;;;;;4864253;29;20203;-81
2023/09/06 02:22:18;;;;;;;6.87;4.00;;;16.30;99.90;;;;;;4864507;29;20391;-81
2023/09/06 02:24:43;;;;;;;5.60;3.53;;;16.30;99.90;;;;;;4864357;29;20195;-81
2023/09/06 02:27:13;;;;;;;5.63;3.57;;;16.30;99.90;;;;;;4864354;29;20380;-81
2023/09/06 02:29:41;;;;;;;6.50;3.97;;;16.30;99.90;;;;;;4864359;29;20677;-81
2023/09/06 02:32:07;;;;;;;5.07;3.70;;;16.30;99.90;;;;;;4864444;29;20406;-81
2023/09/06 02:34:34;;;;;;;6.00;3.73;;;16.20;99.90;;;;;;4864690;29;20467;-81
2023/09/06 02:36:59;;;;;;;5.23;3.50;;;16.10;99.90;;;;;;4864072;29;20192;-81
2023/09/06 02:39:25;;;;;;;6.07;4.03;;;16.00;99.90;;;;;;4863831;29;20738;-81
2023/09/06 02:41:51;;;;;;;4.87;4.23;;;16.00;99.90;;;;;;4864436;29;20240;-81
2023/09/06 02:44:16;;;;;;;7.20;3.97;;;16.00;99.90;;;;;;4864453;29;20192;-81
2023/09/06 02:46:43;;;;;;;7.33;3.60;;;15.90;99.90;;;;;;4864214;29;20407;-81
2023/09/06 02:49:12;;;;;;;8.00;3.97;;;15.90;99.90;;;;;;4864239;29;20663;-81
2023/09/06 02:51:46;;;;;;;9.73;4.43;;;15.90;99.90;;;;;;4864350;29;20395;-82
2023/09/06 02:54:14;;;;;;;3.87;3.40;;;15.80;99.90;;;;;;4864609;29;20459;-81
2023/09/06 02:56:40;;;;;;;4.60;4.10;;;15.80;99.90;;;;;;4864017;29;20834;-81
2023/09/06 02:59:12;;;;;;;12.30;4.87;;;15.80;99.90;;;;;;4864564;29;20419;-81
2023/09/06 03:01:44;;;;;;;7.57;4.60;;;15.80;99.90;;;;;;4864325;29;20199;-81
2023/09/06 03:04:11;;;;;;;5.90;3.67;;;15.70;99.90;;;;;;4863828;29;20415;-80
2023/09/06 03:06:37;;;;;;;5.00;3.67;;;15.70;99.90;;;;;;4863718;29;20426;-81
2023/09/06 03:09:06;;;;;;;4.73;4.10;;;15.70;99.90;;;;;;4864329;29;20406;-81
2023/09/06 03:11:32;;;;;;;6.00;4.20;;;15.60;99.90;;;;;;4862912;29;20414;-81
2023/09/06 03:13:58;;;;;;;5.07;4.47;;;15.60;99.90;;;;;;4863707;29;20488;-81
2023/09/06 03:16:24;;;;;;;5.00;4.03;;;15.60;99.90;;;;;;4863980;29;20403;-81
2023/09/06 03:18:51;;;;;;;5.77;4.70;;;15.50;99.90;;;;;;4863628;29;20610;-81
2023/09/06 03:21:17;;;;;;;5.00;4.33;;;15.50;99.90;;;;;;4863656;29;20436;-81
2023/09/06 03:23:46;;;;;;;9.73;4.93;;;15.40;99.90;;;;;;4863507;29;20397;-81
2023/09/06 03:26:12;;;;;;;7.90;4.90;;;15.40;99.90;;;;;;4864002;29;20425;-81
2023/09/06 03:28:41;;;;;;;7.30;5.00;;;15.40;99.90;;;;;;4863658;29;20408;-81
2023/09/06 03:31:10;;;;;;;6.10;5.07;;;15.40;99.90;;;;;;4863928;29;20431;-81
2023/09/06 03:33:36;;;;;;;6.67;4.53;;;15.40;99.90;;;;;;4863388;29;20891;-81
2023/09/06 03:36:07;;;;;;;7.63;5.20;;;15.50;99.90;;;;;;4863294;29;20457;-81
2023/09/06 03:38:33;;;;;;;6.90;4.10;;;15.50;99.90;;;;;;4863610;29;20484;-81
2023/09/06 03:41:02;;;;;;;8.77;5.27;;;15.50;99.90;;;;;;4863283;29;20429;-81
2023/09/06 03:43:32;;;;;;;8.83;3.87;;;15.50;99.90;;;;;;4863607;29;20516;-81
2023/09/06 03:46:04;;;;;;;7.00;3.93;;;15.50;99.90;;;;;;4863563;29;20454;-81
2023/09/06 03:48:30;;;;;;;6.57;4.23;;;15.60;99.90;;;;;;4863586;29;20463;-81
2023/09/06 03:50:57;;;;;;;11.20;4.77;;;15.60;99.90;;;;;;4863309;29;20844;-81
2023/09/06 03:53:27;;;;;;;4.83;3.93;;;15.70;99.90;;;;;;4862743;29;20508;-81
2023/09/06 03:55:56;;;;;;;8.03;4.63;;;15.60;99.90;;;;;;4863260;29;20418;-81
2023/09/06 03:58:22;;;;;;;7.07;4.03;;;15.70;99.90;;;;;;4863555;29;20395;-81
2023/09/06 04:00:48;;;;;;;7.87;3.97;;;15.80;99.90;;;;;;4862477;29;20729;-81
2023/09/06 04:03:15;;;;;;;4.70;3.87;;;15.80;99.90;;;;;;4863374;29;20428;-80
2023/09/06 04:05:43;;;;;;;4.83;3.63;;;15.80;99.90;;;;;;4862923;29;20628;-81
2023/09/06 04:08:09;;;;;;;6.93;4.40;;;15.80;99.90;;;;;;4863589;29;20396;-81
2023/09/06 04:10:36;;;;;;;9.77;5.13;;;15.80;99.90;;;;;;4863375;29;20568;-81
2023/09/06 04:13:09;;;;;;;6.07;4.90;;;15.80;99.90;;;;;;4862870;29;20196;-81
2023/09/06 04:15:36;;;;;;;5.90;4.10;;;15.80;99.90;;;;;;4863270;29;20429;-81
2023/09/06 04:18:07;;;;;;;5.53;3.53;;;15.80;99.90;;;;;;4862760;29;20774;-81
2023/09/06 04:20:37;;;;;;;6.60;3.80;;;15.80;99.90;;;;;;4863057;29;20808;-81
2023/09/06 04:23:07;;;;;;;6.20;3.73;;;15.70;99.90;;;;;;4862830;29;20471;-81
2023/09/06 04:25:41;;;;;;;6.90;4.13;;;15.70;99.90;;;;;;4862818;29;20404;-81
2023/09/06 04:28:07;;;;;;;6.23;4.07;;;15.70;99.90;;;;;;4862474;29;20403;-81
2023/09/06 04:30:36;;;;;;;5.83;4.67;;;15.70;99.90;;;;;;4862767;29;20798;-81
2023/09/06 04:33:03;;;;;;;6.47;4.77;;;15.70;99.90;;;;;;4862151;29;20483;-81
2023/09/06 04:35:42;;;;;;;4.53;3.80;;;15.70;99.90;;;;;;4862439;29;20467;-81
2023/09/06 04:38:18;;;;;;;4.80;4.40;;;15.70;99.90;;;;;;4862568;29;20408;-81
2023/09/06 04:40:46;;;;;;;7.87;4.67;;;15.70;99.90;;;;;;4862322;29;20416;-81
2023/09/06 04:43:13;;;;;;;6.90;4.47;;;15.70;99.90;;;;;;4862799;29;20421;-81
2023/09/06 04:45:39;;;;;;;10.30;5.30;;;15.70;99.90;;;;;;4862772;29;20421;-81
2023/09/06 04:48:09;;;;;;;14.93;5.50;;;15.70;99.90;;;;;;4862221;29;20404;-81
2023/09/06 04:50:39;;;;;;;7.73;4.77;;;15.60;99.90;;;;;;4862278;29;20417;-81
2023/09/06 04:53:05;;;;;;;10.90;5.73;;;15.60;99.90;;;;;;4862138;29;20404;-81
2023/09/06 04:55:35;;;;;;;10.90;5.50;;;15.60;99.90;;;;;;4862428;29;20917;-81
2023/09/06 04:58:02;;;;;;;6.20;5.10;;;15.60;99.90;;;;;;4862408;29;20228;-81
2023/09/06 05:00:32;;;;;;;9.00;6.50;;;15.60;99.90;;;;;;4862300;29;20987;-80
2023/09/06 05:02:59;;;;;;;13.60;5.90;;;15.70;99.90;;;;;;4862395;29;20460;-80
2023/09/06 05:05:24;;;;;;;13.07;6.63;;;15.70;99.90;;;;;;4862498;29;20510;-80
2023/09/06 05:07:50;;;;;;;10.53;6.17;;;15.80;99.90;;;;;;4862319;29;20486;-80
2023/09/06 05:10:16;;;;;;;8.27;5.77;;;15.80;99.90;;;;;;4862598;29;20558;-81
2023/09/06 05:12:42;;;;;;;7.63;5.67;;;15.90;99.90;;;;;;4862561;29;20396;-80
2023/09/06 05:15:08;;;;;;;5.73;5.10;;;15.90;99.90;;;;;;4862054;29;20219;-80
2023/09/06 05:17:35;;;;;;;16.33;5.27;;;15.90;99.90;;;;;;4862461;29;20392;-81
2023/09/06 05:20:28;;;;;;;8.20;5.20;;;15.90;99.90;;;;;;4862388;29;20451;-81
2023/09/06 05:22:59;;;;;;;12.47;4.87;;;15.90;99.90;;;;;;4862082;29;20864;-81
2023/09/06 05:25:25;;;;;;;8.43;4.97;;;15.90;99.90;;;;;;4862391;29;20400;-81
2023/09/06 05:27:53;;;;;;;8.40;5.10;;;15.90;99.90;;;;;;4862060;29;20407;-80
2023/09/06 05:30:19;;;;;;;8.90;5.30;;;15.90;99.90;;;;;;4862263;29;20445;-80
2023/09/06 05:32:45;;;;;;;5.60;5.10;;;16.00;99.90;;;;;;4861257;29;20403;-80
2023/09/06 05:35:11;;;;;;;6.93;5.10;;;16.00;99.90;;;;;;4865809;29;20235;-80
2023/09/06 05:37:38;;;;;;;10.20;6.20;;;16.10;99.90;;;;;;4866316;29;20709;-80
2023/09/06 05:40:04;;;;;;;6.30;5.50;;;16.10;99.90;;;;;;4865726;29;20865;-81
2023/09/06 05:42:30;;;;;;;7.00;4.83;;;16.20;99.90;;;;;;4865727;29;20854;-81
2023/09/06 05:44:56;;;;;;;6.70;4.67;;;16.20;99.90;;;;;;4865879;29;20488;-80
2023/09/06 05:47:22;;;;;;;9.13;4.97;;;16.30;99.90;;;;;;4866022;29;20388;-81
2023/09/06 05:49:51;;;;;;;7.10;5.13;;;16.30;99.90;;;;;;4865999;29;20402;-80
2023/09/06 05:52:17;;;;;;;8.77;5.33;;;16.30;99.90;;;;;;4866050;29;20189;-80
2023/09/06 05:54:43;;;;;;;7.37;4.43;;;16.40;99.90;;;;;;4865735;29;20466;-81
2023/09/06 05:57:09;;;;;;;12.20;4.50;;;16.40;99.90;;;;;;4865565;29;20922;-81
2023/09/06 05:59:34;;;;;;;5.97;4.90;;;16.50;99.90;;;;;;4865600;29;20408;-80
2023/09/06 06:02:00;;;;;;;6.70;4.67;;;16.50;99.90;;;;;;4865547;29;20195;-80
2023/09/06 06:04:26;;;;;;;8.90;5.60;;;16.60;99.90;;;;;;4865642;29;20615;-80
2023/09/06 06:06:52;;;;;;;5.43;4.90;;;16.60;99.90;;;;;;4865471;29;20181;-81
2023/09/06 06:09:21;;;;;;;7.57;5.43;;;16.70;99.90;;;;;;4865959;29;20403;-80
2023/09/06 06:11:47;;;;;;;8.70;4.87;;;16.70;99.90;;;;;;4865092;29;20543;-80
2023/09/06 06:14:13;;;;;;;12.13;6.07;;;16.70;99.90;;;;;;4865259;29;20455;-80
2023/09/06 06:16:38;;;;;;;5.60;4.20;;;16.80;99.90;;;;;;4865571;29;20192;-81
2023/09/06 06:19:04;;;;;;;5.50;4.90;;;16.90;99.90;;;;;;4865487;29;20263;-80
2023/09/06 06:21:31;;;;;;;12.70;6.77;;;17.00;99.90;;;;;;4865483;29;20658;-80
2023/09/06 06:23:57;;;;;;;7.07;4.73;;;17.10;99.90;;;;;;4864887;29;20196;-80
2023/09/06 06:26:23;;;;;;;6.97;6.00;;;17.20;99.90;;;;;;4865133;29;20425;-81
2023/09/06 06:28:49;;;;;;;14.07;6.30;;;17.30;99.90;;;;;;4865382;29;20421;-80
2023/09/06 06:31:14;;;;;;;8.53;5.27;;;17.40;99.90;;;;;;4865297;29;20195;-80
2023/09/06 06:33:40;;;;;;;6.27;4.60;;;17.50;99.90;;;;;;4865124;29;20219;-80
2023/09/06 06:36:05;;;;;;;6.93;4.77;;;17.60;99.90;;;;;;4865065;29;20196;-80
2023/09/06 06:38:32;;;;;;;7.80;4.27;;;17.80;99.90;;;;;;4865093;29;20526;-81
2023/09/06 06:40:57;;;;;;;15.97;4.60;;;17.90;99.90;;;;;;4864678;29;20188;-80
2023/09/06 06:43:23;;;;;;;11.73;5.00;;;18.00;99.90;;;;;;4864647;29;20486;-85
2023/09/06 06:45:52;;;;;;;10.10;4.50;;;18.10;99.90;;;;;;4862950;29;20639;-85
2023/09/06 06:48:18;;;;;;;7.27;4.83;;;18.20;99.90;;;;;;4864066;29;20256;-86
2023/09/06 06:50:44;;;;;;;8.10;4.70;;;18.30;99.90;;;;;;4863877;29;20417;-85
2023/09/06 06:53:09;;;;;;;9.47;4.80;;;18.30;99.90;;;;;;4863490;29;20188;-85
2023/09/06 06:55:35;;;;;;;6.00;4.20;;;18.40;99.90;;;;;;4864042;29;20564;-85
2023/09/06 06:58:00;;;;;;;7.33;4.43;;;18.50;99.90;;;;;;4863738;29;20541;-86
2023/09/06 07:00:31;;;;;;;5.03;4.00;;;18.60;99.90;;;;;;4862541;29;20188;-85
2023/09/06 07:03:00;;;;;;;6.93;4.70;;;18.70;99.90;;;;;;4863658;29;20173;-86
2023/09/06 07:05:25;;;;;;;9.37;3.93;;;18.80;99.90;;;;;;4863852;29;20820;-85
2023/09/06 07:07:52;;;;;;;4.40;3.60;;;18.90;99.90;;;;;;4863247;29;20425;-85
2023/09/06 07:10:18;;;;;;;4.90;3.90;;;19.00;99.90;;;;;;4863529;29;20187;-85
2023/09/06 07:12:43;;;;;;;7.50;4.53;;;19.10;99.90;;;;;;4863618;29;20432;-86
2023/09/06 07:15:10;;;;;;;6.77;4.03;;;19.20;99.90;;;;;;4863215;29;20264;-86
2023/09/06 07:17:36;;;;;;;6.20;3.93;;;19.30;99.90;;;;;;4863358;29;20191;-85
2023/09/06 07:20:04;;;;;;;5.50;4.30;;;19.40;99.90;;;;;;4862119;29;20950;-85
2023/09/06 07:22:30;;;;;;;5.33;3.47;;;19.50;99.90;;;;;;4863757;29;20429;-85
2023/09/06 07:24:56;;;;;;;7.70;4.43;;;19.60;99.90;;;;;;4862926;29;20427;-86
2023/09/06 07:27:21;;;;;;;4.90;4.10;;;19.60;99.90;;;;;;4863621;29;20638;-85
2023/09/06 07:29:47;;;;;;;7.27;4.00;;;19.70;99.90;;;;;;4863397;29;20240;-85
2023/09/06 07:32:13;;;;;;;9.30;4.40;;;19.80;99.90;;;;;;4862903;29;21068;-86
2023/09/06 07:34:38;;;;;;;6.20;4.10;;;19.90;99.90;;;;;;4863019;29;20673;-85
2023/09/06 07:37:04;;;;;;;5.90;4.10;;;20.10;99.90;;;;;;4862880;29;20661;-85
2023/09/06 07:39:29;;;;;;;7.70;3.80;;;20.10;99.90;;;;;;4864457;29;20188;-86
2023/09/06 07:41:56;;;;;;;7.87;4.13;;;20.30;99.90;;;;;;4862946;29;20184;-86
2023/09/06 07:44:22;;;;;;;6.47;3.67;;;20.40;99.90;;;;;;4862735;29;20275;-86
2023/09/06 07:46:48;;;;;;;5.70;3.53;;;20.50;99.90;;;;;;4862836;29;20524;-85
2023/09/06 07:49:18;;;;;;;5.77;4.10;;;20.60;99.90;;;;;;4862735;29;20249;-86
2023/09/06 07:51:44;;;;;;;6.30;3.20;;;20.70;99.90;;;;;;4862436;29;20474;-85
2023/09/06 07:54:10;;;;;;;4.43;3.47;;;20.80;99.90;;;;;;4862757;29;20472;-85
2023/09/06 07:56:37;;;;;;;5.03;3.90;;;20.90;99.90;;;;;;4862567;29;20400;-85
2023/09/06 07:59:03;;;;;;;7.17;3.53;;;20.90;99.90;;;;;;4862623;29;20773;-86
2023/09/06 08:01:28;;;;;;;6.17;3.27;;;21.10;99.90;;;;;;4862840;29;20417;-93
2023/09/06 08:03:55;;;;;;;7.60;3.93;;;21.10;99.90;;;;;;4866228;29;20295;-86
2023/09/06 08:06:21;;;;;;;5.33;3.70;;;21.20;99.90;;;;;;4863264;29;20247;-86
2023/09/06 08:08:46;;;;;;;4.93;3.60;;;21.30;99.90;;;;;;4862639;29;20404;-86
2023/09/06 08:11:16;;;;;;;6.13;3.00;;;21.40;99.90;;;;;;4862137;29;20195;-86
2023/09/06 08:13:41;;;;;;;3.23;2.77;;;21.60;99.90;;;;;;4862468;29;20228;-86
2023/09/06 08:16:07;;;;;;;3.60;3.10;;;21.70;99.90;;;;;;4861782;29;20481;-85
2023/09/06 08:18:32;;;;;;;13.50;3.57;;;21.80;99.90;;;;;;4863844;29;20267;-84
2023/09/06 08:20:59;;;;;;;3.50;3.20;;;21.90;99.90;;;;;;4864804;29;20203;-86
2023/09/06 08:23:24;;;;;;;8.23;3.70;;;22.00;99.90;;;;;;4861127;29;20199;-86
2023/09/06 08:25:50;;;;;;;7.90;3.40;;;22.20;99.90;;;;;;4862137;29;20926;-87
2023/09/06 08:28:18;;;;;;;5.13;3.30;;;22.40;99.90;;;;;;4861764;29;20267;-86
2023/09/06 08:30:44;;;;;;;5.10;3.23;;;22.70;99.90;;;;;;4862084;29;20701;-86
2023/09/06 08:33:10;;;;;;;4.40;3.23;;;23.00;99.90;;;;;;4861532;29;20399;-87
2023/09/06 08:35:36;;;;;;;3.60;3.07;;;23.50;99.90;;;;;;4861676;29;20548;-86
2023/09/06 08:38:02;;;;;;;5.00;2.80;;;23.90;99.90;;;;;;4861967;29;20926;-86
2023/09/06 08:40:27;;;;;;;5.63;3.07;;;24.30;99.90;;;;;;4862081;29;20180;-87
2023/09/06 08:42:55;;;;;;;7.47;3.43;;;24.60;99.90;;;;;;4861897;29;20926;-86
2023/09/06 08:45:22;;;;;;;4.43;2.43;;;25.10;99.90;;;;;;4861420;29;20290;-86
2023/09/06 08:47:48;;;;;;;7.87;3.13;;;25.40;99.90;;;;;;4861468;29;20799;-83
2023/09/06 08:50:16;;;;;;;4.83;2.90;;;25.70;99.90;;;;;;4861397;29;20425;-84
2023/09/06 08:52:43;;;;;;;7.00;2.40;;;25.90;99.90;;;;;;4865705;29;20473;-83
2023/09/06 08:55:10;;;;;;;4.03;2.80;;;26.00;99.90;;;;;;4861377;29;20485;-86
2023/09/06 08:57:40;;;;;;;4.00;3.13;;;26.30;99.90;;;;;;4861725;29;20421;-86
2023/09/06 09:00:11;;;;;;;7.13;2.97;;;26.40;99.90;;;;;;4860862;29;20417;-86
2023/09/06 09:02:37;;;;;;;7.00;3.50;;;26.60;99.90;;;;;;4861107;29;20443;-89
2023/09/06 09:05:05;;;;;;;5.93;3.70;;;26.70;99.90;;;;;;4860484;29;20476;-86
2023/09/06 09:07:31;;;;;;;4.63;3.07;;;26.90;99.90;;;;;;4861522;29;20797;-86
2023/09/06 09:10:04;;;;;;;4.70;3.53;;;26.90;99.90;;;;;;4864559;29;20496;-86
2023/09/06 09:12:30;;;;;;;6.07;3.00;;;26.60;99.90;;;;;;4865053;29;20184;-87
2023/09/06 09:14:57;;;;;;;5.63;3.40;;;27.20;99.90;;;;;;4864845;29;20480;-86
2023/09/06 09:17:27;;;;;;;4.90;2.97;;;27.30;99.90;;;;;;4864309;29;20995;-86
2023/09/06 09:19:56;;;;;;;6.40;2.90;;;27.60;99.90;;;;;;4864845;29;20411;-86
2023/09/06 09:22:34;;;;;;;6.63;3.00;;;28.20;99.90;;;;;;4864385;29;20436;-86
2023/09/06 09:25:04;;;;;;;4.70;3.30;;;28.00;99.90;;;;;;4864537;29;20524;-85
2023/09/06 09:27:33;;;;;;;5.40;3.10;;;28.30;99.90;;;;;;4864303;29;20425;-86
2023/09/06 09:30:01;;;;;;;6.13;3.43;;;28.80;99.90;;;;;;4864391;29;20478;-88
2023/09/06 09:32:27;;;;;;;4.60;3.43;;;28.60;99.90;;;;;;4864406;29;20551;-88
2023/09/06 09:34:54;;;;;;;3.90;3.10;;;28.40;99.90;;;;;;4864301;29;20600;-88
2023/09/06 09:37:22;;;;;;;4.23;3.33;;;28.20;99.90;;;;;;4864383;29;20930;-94
2023/09/06 09:39:47;;;;;;;4.43;2.67;;;28.70;99.90;;;;;;4864657;29;20211;-88
2023/09/06 09:42:14;;;;;;;9.17;3.17;;;28.60;99.90;;;;;;4863838;29;20948;-87
2023/09/06 09:44:40;;;;;;;4.73;3.20;;;28.80;99.90;;;;;;4864100;29;20735;-87
2023/09/06 09:47:10;;;;;;;5.43;3.60;;;29.00;99.90;;;;;;4864082;29;20413;-89
2023/09/06 09:49:40;;;;;;;4.40;2.80;;;28.70;99.90;;;;;;4864221;29;20427;-86
2023/09/06 09:52:10;;;;;;;3.30;3.00;;;28.90;99.90;;;;;;4863768;29;20444;-85
2023/09/06 09:54:47;;;;;;;4.90;2.60;;;29.30;99.90;;;;;;4864060;29;20480;-87
2023/09/06 09:57:13;;;;;;;7.00;3.00;;;30.20;99.90;;;;;;4863803;29;20413;-86
2023/09/06 09:59:40;;;;;;;3.30;2.60;;;31.10;99.90;;;;;;4863885;29;20424;-86
2023/09/06 10:02:09;;;;;;;5.60;2.80;;;30.80;99.90;;;;;;4863801;29;20425;-83
2023/09/06 10:04:37;;;;;;;2.53;2.33;;;31.20;99.90;;;;;;4863652;29;20472;-83
2023/09/06 10:07:04;;;;;;;4.27;2.70;;;31.20;99.90;;;;;;4863745;29;20440;-83
2023/09/06 10:09:32;;;;;;;3.33;3.03;;;31.40;99.90;;;;;;4863591;29;20476;-83
2023/09/06 10:12:00;;;;;;;5.13;2.90;;;31.40;99.90;;;;;;4863799;29;20472;-83
2023/09/06 10:14:27;;;;;;;4.07;3.07;;;31.50;99.90;;;;;;4863362;29;20487;-84
2023/09/06 10:16:53;;;;;;;5.80;3.00;;;31.70;99.90;;;;;;4862346;29;20428;-83
2023/09/06 10:19:22;;;;;;;3.57;2.97;;;31.90;99.90;;;;;;4861744;29;20938;-83
2023/09/06 10:21:48;;;;;;;4.33;3.10;;;31.60;99.90;;;;;;4863294;29;20433;-83
2023/09/06 10:24:18;;;;;;;3.00;2.70;;;31.60;99.90;;;;;;4863131;29;20461;-83
2023/09/06 10:26:46;;;;;;;3.77;2.83;;;31.40;99.90;;;;;;4863492;29;20432;-83
2023/09/06 10:29:28;;;;;;;7.80;3.23;;;31.60;99.90;;;;;;4863034;29;20413;-83
2023/09/06 10:32:01;;;;;;;3.00;2.80;;;31.50;99.90;;;;;;4863512;29;20432;-82
2023/09/06 10:34:33;;;;;;;3.23;2.93;;;31.60;99.90;;;;;;4862945;29;20499;-86
2023/09/06 10:37:02;;;;;;;3.47;3.17;;;31.90;99.90;;;;;;4863559;29;20425;-83
2023/09/06 10:39:29;;;;;;;4.60;3.10;;;32.10;99.90;;;;;;4863184;29;20416;-82
2023/09/06 10:42:11;;;;;;;3.23;2.93;;;32.00;99.90;;;;;;4863144;29;20828;-82
2023/09/06 10:44:54;;;;;;;3.50;2.83;;;32.10;99.60;;;;;;4863287;29;20418;-83
2023/09/06 10:47:33;;;;;;;6.60;2.60;;;32.00;99.10;;;;;;4861648;29;20436;-84
2023/09/06 10:50:14;;;;;;;3.20;2.70;;;32.20;98.90;;;;;;4863033;29;20417;-83
2023/09/06 10:52:45;;;;;;;3.30;3.00;;;32.00;98.70;;;;;;4863057;29;20425;-83
2023/09/06 10:55:24;;;;;;;4.90;2.80;;;32.00;98.60;;;;;;4862436;29;20469;-92
2023/09/06 10:57:52;;;;;;;4.67;2.90;;;32.20;98.90;;;;;;4862788;29;20981;-85
2023/09/06 11:00:20;;;;;;;4.77;2.70;;;32.20;97.00;;;;;;4862720;29;20425;-85
2023/09/06 11:03:08;;;;;;;3.27;2.80;;;32.40;97.50;;;;;;4862982;29;20429;-85
2023/09/06 11:05:39;;;;;;;3.10;2.90;;;32.40;95.40;;;;;;4850919;29;20493;-88
2023/09/06 11:08:06;;;;;;;3.10;2.60;;;32.50;95.40;;;;;;4862790;29;20791;-86
2023/09/06 11:10:32;;;;;;;3.40;3.13;;;32.40;94.70;;;;;;4862734;29;20418;-84
2023/09/06 11:13:09;;;;;;;3.20;2.83;;;32.50;94.90;;;;;;4862848;29;20418;-84
2023/09/06 11:15:36;;;;;;;3.90;3.37;;;32.60;94.30;;;;;;4862632;29;20481;-84
2023/09/06 11:18:03;;;;;;;5.57;3.10;;;33.00;91.90;;;;;;4862443;29;20432;-84
2023/09/06 11:20:29;;;;;;;6.40;3.53;;;33.10;90.70;;;;;;4862370;29;20449;-84
2023/09/06 11:23:00;;;;;;;5.90;3.43;;;33.30;91.00;;;;;;4862502;29;20860;-84
2023/09/06 11:25:28;;;;;;;4.80;3.20;;;33.50;91.00;;;;;;4862409;29;20416;-84
2023/09/06 11:27:58;;;;;;;3.83;3.00;;;33.90;90.30;;;;;;4862483;29;20432;-83
2023/09/06 11:30:26;;;;;;;4.23;2.93;;;33.90;90.50;;;;;;4861878;29;20437;-85
2023/09/06 11:32:53;;;;;;;3.20;2.90;;;34.00;90.00;;;;;;4861829;29;20421;-84
2023/09/06 11:35:22;;;;;;;4.03;3.20;;;34.20;90.20;;;;;;4861971;29;20497;-84
2023/09/06 11:37:51;;;;;;;4.00;3.43;;;34.10;89.10;;;;;;4860953;29;21012;-84
2023/09/06 11:40:21;;;;;;;3.73;3.00;;;34.00;89.40;;;;;;4861992;29;20413;-84
2023/09/06 11:42:59;;;;;;;5.70;2.87;;;34.20;84.90;;;;;;4862086;29;20421;-86
2023/09/06 11:45:26;;;;;;;3.43;3.10;;;34.30;84.80;;;;;;4861964;29;20484;-84
2023/09/06 11:47:53;;;;;;;5.57;2.97;;;34.70;80.60;;;;;;4862128;29;20417;-84
2023/09/06 11:50:23;;;;;;;3.70;3.40;;;35.00;78.60;;;;;;4861767;29;20442;-84
2023/09/06 11:52:50;;;;;;;5.50;3.00;;;34.90;77.90;;;;;;4860640;29;20444;-84
2023/09/06 11:55:16;;;;;;;3.27;2.97;;;35.10;79.90;;;;;;4861563;29;20488;-84
2023/09/06 11:57:50;;;;;;;7.83;2.97;;;35.20;79.50;;;;;;4860415;29;20433;-84
2023/09/06 12:00:28;;;;;;;3.00;2.70;;;35.60;79.40;;;;;;4861716;29;20425;-84
2023/09/06 12:03:26;;;;;;;3.77;3.30;;;35.50;78.20;;;;;;4862073;29;20760;-84
2023/09/06 12:05:56;;;;;;;3.40;3.10;;;35.90;77.30;;;;;;4861691;29;20477;-84
2023/09/06 12:08:23;;;;;;;4.10;3.70;;;35.70;75.80;;;;;;4861363;29;20432;-84
2023/09/06 12:11:05;;;;;;;3.37;3.07;;;35.90;77.20;;;;;;4861605;29;20421;-85
2023/09/06 12:13:34;;;;;;;4.10;3.23;;;36.60;75.40;;;;;;4861471;29;20424;-84
2023/09/06 12:16:01;;;;;;;3.70;3.40;;;36.50;74.50;;;;;;4861393;29;20824;-84
2023/09/06 12:18:28;;;;;;;3.67;3.37;;;36.60;74.90;;;;;;4861161;29;20421;-84
2023/09/06 12:20:57;;;;;;;3.43;2.97;;;36.60;76.50;;;;;;4861330;29;20854;-84
2023/09/06 12:23:23;;;;;;;6.40;3.30;;;37.20;70.70;;;;;;4861321;29;20825;-84
2023/09/06 12:25:48;;;;;;;4.10;3.00;;;36.90;66.70;;;;;;4861544;29;20505;-85
2023/09/06 12:28:14;;;;;;;4.33;3.20;;;36.80;67.00;;;;;;4861368;29;20981;-84
2023/09/06 12:30:40;;;;;;;4.60;3.07;;;36.70;68.30;;;;;;4861410;29;20600;-84
2023/09/06 12:33:05;;;;;;;7.50;3.20;;;36.90;69.20;;;;;;4864930;29;20540;-83
2023/09/06 12:35:38;;;;;;;3.87;3.57;;;37.00;66.70;;;;;;4874669;29;20677;-83
2023/09/06 12:38:07;;;;;;;5.17;3.30;;;37.50;70.00;;;;;;4862663;29;20274;-83
2023/09/06 12:40:33;;;;;;;3.43;3.10;;;37.80;69.10;;;;;;4861876;29;20453;-84
2023/09/06 12:42:59;;;;;;;4.93;3.77;;;38.10;67.70;;;;;;4865671;29;20477;-84
2023/09/06 12:45:33;;;;;;;3.30;3.00;;;37.80;63.50;;;;;;4861947;29;20457;-85
2023/09/06 12:48:00;;;;;;;4.23;3.50;;;37.80;65.20;;;;;;4861597;29;20517;-85
2023/09/06 12:50:27;;;;;;;6.40;3.63;;;37.90;63.80;;;;;;4861732;29;20508;-85